Time;durP1;ratioP1;P1;durP2;ratioP2;P2;SDS_P1;SDS_P2;PMS_P1;PMS_P2;Temp;Humidity;BMP_temperature;BMP_pressure;BME280_temperature;BME280_humidity;BME280_pressure;Samples;Min_cycle;Max_cycle;Signal;HPM_P1;HPM_P2
2022/07/07 00:01:15;;;;;;;4.88;2.33;;;;;;;25.55;46.33;100521.22;2093794;28;20111;-75
2022/07/07 00:02:38;;;;;;;11.43;3.20;;;;;;;25.55;46.18;100513.97;2101551;28;20044;-74
2022/07/07 00:04:01;;;;;;;7.05;3.03;;;;;;;25.55;46.74;100513.09;2096449;28;20048;-75
2022/07/07 00:05:24;;;;;;;7.05;2.85;;;;;;;25.57;46.81;100522.03;2097755;28;20160;-74
2022/07/07 00:06:46;;;;;;;6.18;3.22;;;;;;;25.57;47.21;100520.22;2102336;28;20067;-74
2022/07/07 00:08:08;;;;;;;13.18;2.85;;;;;;;25.58;47.41;100522.00;2097020;28;20045;-74
2022/07/07 00:09:30;;;;;;;8.63;3.15;;;;;;;25.58;47.53;100521.09;2093698;28;20051;-74
2022/07/07 00:10:52;;;;;;;9.70;2.97;;;;;;;25.56;47.93;100522.97;2100544;28;20151;-74
2022/07/07 00:12:15;;;;;;;10.65;3.13;;;;;;;25.55;48.13;100519.38;2101648;28;20055;-75
2022/07/07 00:13:39;;;;;;;7.75;2.80;;;;;;;25.54;48.36;100516.75;2094029;28;20052;-74
2022/07/07 00:15:01;;;;;;;8.38;3.50;;;;;;;25.52;48.45;100521.38;2091265;28;20131;-75
2022/07/07 00:16:23;;;;;;;8.25;2.70;;;;;;;25.49;48.45;100517.00;2098843;28;20060;-75
2022/07/07 00:17:45;;;;;;;7.40;3.13;;;;;;;25.49;48.33;100517.00;2092625;28;20613;-75
2022/07/07 00:19:06;;;;;;;7.43;2.97;;;;;;;25.49;48.31;100513.41;2100978;28;20117;-74
2022/07/07 00:20:29;;;;;;;7.55;3.13;;;;;;;25.47;48.58;100516.19;2100723;28;20524;-75
2022/07/07 00:21:51;;;;;;;6.55;2.25;;;;;;;25.48;48.59;100525.16;2100293;28;20086;-74
2022/07/07 00:23:13;;;;;;;7.32;2.38;;;;;;;25.48;48.36;100519.75;2101090;28;20048;-75
2022/07/07 00:24:36;;;;;;;7.53;2.95;;;;;;;25.48;47.86;100517.06;2100984;28;20584;-74
2022/07/07 00:25:57;;;;;;;9.13;3.10;;;;;;;25.48;48.04;100515.22;2098349;28;20089;-74
2022/07/07 00:27:19;;;;;;;4.72;2.90;;;;;;;25.47;48.21;100518.88;2091136;28;20147;-74
2022/07/07 00:28:42;;;;;;;9.13;3.25;;;;;;;25.49;48.04;100516.13;2092780;28;20533;-74
2022/07/07 00:30:06;;;;;;;7.65;2.72;;;;;;;25.49;48.59;100516.13;2104431;28;20266;-74
2022/07/07 00:31:28;;;;;;;7.22;3.08;;;;;;;25.50;48.60;100520.56;2109938;28;20471;-74
2022/07/07 00:32:50;;;;;;;7.07;3.10;;;;;;;25.50;49.12;100524.16;2102297;28;20125;-74
2022/07/07 00:34:11;;;;;;;9.73;3.08;;;;;;;25.49;49.37;100514.28;2102587;28;20067;-74
2022/07/07 00:35:34;;;;;;;8.98;3.67;;;;;;;25.49;49.78;100513.41;2096922;28;20048;-74
2022/07/07 00:36:55;;;;;;;7.35;3.15;;;;;;;25.47;50.30;100515.34;2108224;28;20047;-74
2022/07/07 00:38:18;;;;;;;8.57;3.70;;;;;;;25.47;50.79;100521.59;2099747;28;20048;-74
2022/07/07 00:39:41;;;;;;;8.27;3.42;;;;;;;25.47;51.05;100518.88;2102457;28;20044;-75
2022/07/07 00:41:02;;;;;;;13.40;4.05;;;;;;;25.47;51.25;100512.63;2107954;28;20047;-74
2022/07/07 00:42:25;;;;;;;8.57;3.75;;;;;;;25.47;51.20;100508.06;2092563;28;20933;-74
2022/07/07 00:43:49;;;;;;;6.75;3.13;;;;;;;25.48;51.24;100517.06;2102209;28;20047;-74
2022/07/07 00:45:11;;;;;;;6.20;3.35;;;;;;;25.46;51.31;100525.28;2100405;28;20082;-74
2022/07/07 00:46:43;;;;;;;11.20;4.03;;;;;;;25.47;51.18;100524.28;2108182;28;20054;-75
2022/07/07 00:48:08;;;;;;;8.13;3.75;;;;;;;25.47;51.18;100524.28;2101984;28;20048;-74
2022/07/07 00:49:31;;;;;;;11.27;3.38;;;;;;;25.49;50.88;100519.69;2111111;28;20058;-74
2022/07/07 00:50:53;;;;;;;8.02;3.28;;;;;;;25.50;51.14;100524.16;2104011;28;20584;-74
2022/07/07 00:52:16;;;;;;;16.02;3.35;;;;;;;25.51;51.02;100528.63;2112306;27;20052;-74
2022/07/07 00:53:40;;;;;;;12.75;3.20;;;;;;;25.52;50.96;100521.38;2109081;28;21333;-74
2022/07/07 00:55:03;;;;;;;6.90;3.13;;;;;;;25.50;50.50;100520.56;2093432;28;20049;-74
2022/07/07 00:56:24;;;;;;;6.47;3.38;;;;;;;25.53;50.41;100528.53;2099786;28;20052;-74
2022/07/07 00:57:47;;;;;;;8.93;2.90;;;;;;;25.52;50.21;100516.84;2101548;28;20052;-73
2022/07/07 00:59:10;;;;;;;12.45;3.15;;;;;;;25.51;50.13;100514.22;2104840;28;20512;-74
2022/07/07 01:00:33;;;;;;;8.25;3.47;;;;;;;25.49;50.14;100517.00;2111807;27;20426;-74
2022/07/07 01:01:57;;;;;;;5.05;2.70;;;;;;;25.50;50.27;100523.28;2104843;28;20440;-74
2022/07/07 01:03:19;;;;;;;7.75;2.85;;;;;;;25.46;50.13;100525.28;2109958;28;20043;-74
2022/07/07 01:04:42;;;;;;;7.63;3.20;;;;;;;25.46;50.22;100510.88;2106580;28;20055;-74
2022/07/07 01:06:05;;;;;;;12.60;4.55;;;;;;;25.43;50.21;100506.50;2110977;28;20043;-74
2022/07/07 01:07:27;;;;;;;8.00;3.40;;;;;;;25.41;50.22;100508.38;2103038;28;20076;-74
2022/07/07 01:08:50;;;;;;;8.00;2.97;;;;;;;25.38;50.30;100511.25;2105072;28;20047;-74
2022/07/07 01:10:12;;;;;;;7.78;3.38;;;;;;;25.35;50.52;100517.69;2102144;28;20044;-75
2022/07/07 01:11:49;;;;;;;8.30;3.28;;;;;;;25.33;50.59;100506.09;2102278;28;20039;-74
2022/07/07 01:13:11;;;;;;;8.52;3.53;;;;;;;25.31;50.48;100510.69;2098886;28;20036;-74
2022/07/07 01:14:35;;;;;;;8.43;2.95;;;;;;;25.29;50.60;100503.59;2106805;28;20050;-74
2022/07/07 01:15:56;;;;;;;12.40;3.70;;;;;;;25.26;50.92;100509.16;2095977;28;20083;-74
2022/07/07 01:17:19;;;;;;;9.13;3.33;;;;;;;25.24;50.78;100506.53;2102035;28;20237;-74
2022/07/07 01:18:41;;;;;;;7.13;3.00;;;;;;;25.24;50.92;100503.81;2111866;28;20078;-74
2022/07/07 01:20:06;;;;;;;8.75;3.45;;;;;;;25.23;51.01;100504.78;2108048;28;20105;-74
2022/07/07 01:21:33;;;;;;;7.05;3.70;;;;;;;25.23;51.37;100503.88;2095417;28;20118;-74
2022/07/07 01:22:58;;;;;;;7.68;3.13;;;;;;;25.23;51.35;100503.88;2106914;28;20062;-74
2022/07/07 01:24:20;;;;;;;8.32;3.53;;;;;;;25.21;51.40;100505.78;2109409;28;20051;-73
2022/07/07 01:25:43;;;;;;;6.40;3.30;;;;;;;25.20;51.38;100506.75;2108729;28;20050;-74
2022/07/07 01:27:06;;;;;;;7.28;2.92;;;;;;;25.18;51.65;100496.03;2101765;28;20069;-74
2022/07/07 01:28:29;;;;;;;8.02;3.17;;;;;;;25.19;51.25;100499.59;2102084;28;20048;-74
2022/07/07 01:29:52;;;;;;;8.85;2.80;;;;;;;25.19;51.27;100497.78;2102014;28;20051;-74
2022/07/07 01:31:15;;;;;;;7.88;2.75;;;;;;;25.20;50.90;100501.34;2108573;28;20064;-74
2022/07/07 01:32:36;;;;;;;8.00;3.53;;;;;;;25.20;51.10;100501.34;2095060;28;20051;-74
2022/07/07 01:33:59;;;;;;;13.93;3.38;;;;;;;25.21;50.85;100503.97;2102671;28;20043;-74
2022/07/07 01:35:21;;;;;;;9.18;3.55;;;;;;;25.23;50.83;100488.56;2104006;28;20044;-74
2022/07/07 01:36:44;;;;;;;9.10;3.50;;;;;;;25.24;50.89;100497.53;2105522;28;20067;-74
2022/07/07 01:38:07;;;;;;;6.60;3.42;;;;;;;25.25;50.59;100494.78;2101907;28;20056;-74
2022/07/07 01:39:30;;;;;;;8.07;3.20;;;;;;;25.25;50.58;100497.47;2109265;28;20052;-74
2022/07/07 01:40:51;;;;;;;9.10;3.38;;;;;;;25.26;50.53;100493.81;2102031;28;20078;-73
2022/07/07 01:42:14;;;;;;;9.43;3.20;;;;;;;25.26;50.48;100495.66;2101543;28;20151;-74
2022/07/07 01:43:37;;;;;;;7.22;3.40;;;;;;;25.25;50.29;100489.38;2104970;28;20055;-74
2022/07/07 01:44:59;;;;;;;7.13;2.80;;;;;;;25.26;50.30;100493.81;2116481;28;20468;-74
2022/07/07 01:46:21;;;;;;;11.30;3.40;;;;;;;25.26;50.56;100493.81;2106249;28;20063;-74
2022/07/07 01:47:44;;;;;;;8.63;3.42;;;;;;;25.25;50.34;100493.88;2104132;28;20499;-74
2022/07/07 01:49:05;;;;;;;9.95;3.65;;;;;;;25.25;50.41;100496.59;2102359;28;20070;-75
2022/07/07 01:50:28;;;;;;;11.90;3.13;;;;;;;25.24;50.58;100503.81;2110547;28;20070;-74
2022/07/07 01:51:49;;;;;;;6.68;3.50;;;;;;;25.23;50.68;100502.06;2108326;28;20052;-74
2022/07/07 01:53:13;;;;;;;7.22;3.35;;;;;;;25.22;50.93;100492.19;2107432;28;20382;-74
2022/07/07 01:54:36;;;;;;;10.82;4.05;;;;;;;25.22;50.96;100500.31;2110183;28;20043;-74
2022/07/07 01:56:03;;;;;;;4.88;2.60;;;;;;;25.21;50.91;100501.25;2109001;28;20064;-74
2022/07/07 01:57:26;;;;;;;8.70;3.40;;;;;;;25.22;50.88;100500.31;2096361;28;22143;-74
2022/07/07 01:58:48;;;;;;;6.78;3.20;;;;;;;25.23;50.73;100510.16;2109105;28;20579;-74
2022/07/07 02:00:12;;;;;;;7.38;3.35;;;;;;;25.24;50.67;100511.94;2105922;28;20051;-74
2022/07/07 02:01:34;;;;;;;10.63;3.38;;;;;;;25.25;50.28;100500.19;2115647;27;20047;-74
2022/07/07 02:02:56;;;;;;;7.40;3.47;;;;;;;25.25;50.17;100513.69;2110853;28;20084;-74
2022/07/07 02:04:18;;;;;;;7.68;3.63;;;;;;;25.24;50.28;100513.75;2096133;28;20397;-74
2022/07/07 02:05:41;;;;;;;8.73;3.35;;;;;;;25.24;50.29;100511.94;2103346;28;20074;-74
2022/07/07 02:07:02;;;;;;;7.95;2.92;;;;;;;25.24;50.62;100502.94;2102906;28;21298;-74
2022/07/07 02:08:26;;;;;;;5.80;2.90;;;;;;;25.23;50.34;100509.28;2115684;27;20057;-74
2022/07/07 02:09:49;;;;;;;9.40;3.63;;;;;;;25.21;50.50;100486.88;2106288;28;20125;-74
2022/07/07 02:11:13;;;;;;;8.02;3.47;;;;;;;25.21;50.39;100498.56;2106529;28;20063;-74
2022/07/07 02:12:35;;;;;;;7.13;3.30;;;;;;;25.21;50.65;100500.38;2106136;28;20044;-74
2022/07/07 02:13:58;;;;;;;11.82;3.00;;;;;;;25.22;50.38;100504.84;2102110;28;20082;-76
2022/07/07 02:15:20;;;;;;;7.85;3.05;;;;;;;25.23;50.20;100501.19;2095564;28;20044;-74
2022/07/07 02:16:42;;;;;;;5.95;2.97;;;;;;;25.21;50.03;100486.88;2100952;28;20557;-75
2022/07/07 02:18:05;;;;;;;7.65;2.30;;;;;;;25.21;50.01;100485.03;2097246;28;20060;-75
2022/07/07 02:19:27;;;;;;;9.30;3.42;;;;;;;25.25;49.76;100488.50;2093469;28;20075;-75
2022/07/07 02:20:49;;;;;;;6.05;3.03;;;;;;;25.25;49.83;100480.38;2097779;28;20051;-74
2022/07/07 02:22:12;;;;;;;6.88;2.58;;;;;;;25.28;49.78;100493.72;2107080;28;20067;-74
2022/07/07 02:23:36;;;;;;;7.95;3.30;;;;;;;25.28;49.63;100466.69;2111916;28;20067;-74
2022/07/07 02:24:59;;;;;;;10.07;3.05;;;;;;;25.27;49.86;100486.59;2103515;28;20075;-75
2022/07/07 02:26:21;;;;;;;7.32;2.60;;;;;;;25.28;49.57;100482.91;2090044;28;20049;-74
2022/07/07 02:27:43;;;;;;;9.00;3.20;;;;;;;25.24;49.79;100482.19;2095994;28;20055;-74
2022/07/07 02:29:06;;;;;;;6.97;3.40;;;;;;;25.23;49.44;100480.44;2103399;28;20040;-74
2022/07/07 02:30:27;;;;;;;7.88;3.25;;;;;;;25.22;49.42;100476.00;2099066;28;20048;-74
2022/07/07 02:31:50;;;;;;;4.93;2.63;;;;;;;25.22;49.50;100472.41;2099881;28;20716;-74
2022/07/07 02:33:11;;;;;;;7.55;2.95;;;;;;;25.23;49.15;100487.69;2101770;28;20040;-74
2022/07/07 02:34:33;;;;;;;8.25;3.05;;;;;;;25.24;49.29;100484.91;2102501;28;20082;-75
2022/07/07 02:35:55;;;;;;;9.00;2.90;;;;;;;25.24;49.15;100487.59;2103623;28;20444;-75
2022/07/07 02:37:17;;;;;;;5.55;3.28;;;;;;;25.25;49.01;100492.06;2097278;28;20610;-74
2022/07/07 02:38:40;;;;;;;6.55;2.50;;;;;;;25.25;48.92;100486.66;2092313;28;20068;-74
2022/07/07 02:40:03;;;;;;;7.82;2.97;;;;;;;25.24;49.20;100487.59;2101723;28;20469;-75
2022/07/07 02:41:26;;;;;;;5.57;3.05;;;;;;;25.27;49.19;100487.44;2103039;28;20142;-75
2022/07/07 02:42:47;;;;;;;13.27;3.45;;;;;;;25.26;49.20;100477.59;2098310;28;20060;-74
2022/07/07 02:44:09;;;;;;;7.47;3.28;;;;;;;25.27;49.25;100500.09;2097332;28;20036;-74
2022/07/07 02:45:32;;;;;;;7.45;3.00;;;;;;;25.26;48.91;100490.25;2101787;28;20530;-75
2022/07/07 02:46:54;;;;;;;7.40;3.33;;;;;;;25.27;48.86;100489.28;2098410;28;20072;-75
2022/07/07 02:48:17;;;;;;;8.10;2.97;;;;;;;25.27;49.15;100494.69;2094474;28;20056;-74
2022/07/07 02:49:39;;;;;;;6.47;3.05;;;;;;;25.27;49.09;100494.69;2108167;28;20416;-74
2022/07/07 02:51:01;;;;;;;7.60;3.20;;;;;;;25.27;49.14;100489.28;2102247;28;20064;-74
2022/07/07 02:52:23;;;;;;;9.50;3.33;;;;;;;25.24;49.21;100486.72;2110393;28;20046;-75
2022/07/07 02:53:47;;;;;;;5.43;2.40;;;;;;;25.25;49.01;100488.50;2097458;28;20052;-74
2022/07/07 02:55:09;;;;;;;6.28;2.67;;;;;;;25.25;48.98;100492.06;2097574;28;20572;-74
2022/07/07 02:56:31;;;;;;;;;;;;;;;25.26;49.05;100507.34;2099045;28;20105;-75
2022/07/07 02:57:53;;;;;;;6.28;2.65;;;;;;;25.28;49.14;100504.53;2098938;28;19927;-74
2022/07/07 02:59:15;;;;;;;8.20;2.60;;;;;;;25.28;48.65;100504.53;2103229;28;20448;-74
2022/07/07 03:00:37;;;;;;;5.97;3.00;;;;;;;25.28;48.88;100510.81;2095219;28;20584;-75
2022/07/07 03:01:59;;;;;;;6.90;2.95;;;;;;;25.28;48.80;100513.53;2097822;28;20048;-74
2022/07/07 03:03:21;;;;;;;7.80;3.20;;;;;;;25.26;48.69;100515.44;2098871;28;20124;-74
2022/07/07 03:04:43;;;;;;;6.80;3.17;;;;;;;25.25;48.84;100510.09;2105392;28;20048;-75
2022/07/07 03:06:04;;;;;;;7.10;2.72;;;;;;;25.23;48.96;100510.16;2097366;28;20517;-74
2022/07/07 03:07:27;;;;;;;10.02;3.20;;;;;;;25.26;48.99;100509.16;2092146;28;20059;-74
2022/07/07 03:08:50;;;;;;;7.82;2.97;;;;;;;25.24;49.20;100517.34;2107794;28;20247;-74
2022/07/07 03:10:12;;;;;;;12.27;3.88;;;;;;;25.23;49.59;100520.97;2105762;28;20485;-74
2022/07/07 03:11:35;;;;;;;7.18;3.08;;;;;;;25.24;49.67;100522.75;2098141;28;20057;-74
2022/07/07 03:12:56;;;;;;;6.70;2.88;;;;;;;25.24;49.54;100524.56;2091114;28;20044;-74
2022/07/07 03:14:19;;;;;;;7.15;3.10;;;;;;;25.23;49.91;100514.69;2087479;28;20505;-74
2022/07/07 03:15:40;;;;;;;8.23;3.45;;;;;;;25.24;49.79;100521.88;2093623;28;20041;-74
2022/07/07 03:17:03;;;;;;;8.07;3.03;;;;;;;25.27;49.68;100527.13;2095967;28;20040;-74
2022/07/07 03:18:25;;;;;;;7.50;2.80;;;;;;;25.28;49.56;100526.16;2094542;28;20041;-74
2022/07/07 03:19:47;;;;;;;11.15;3.42;;;;;;;25.29;49.97;100523.38;2100801;28;20139;-74
2022/07/07 03:21:09;;;;;;;9.48;2.92;;;;;;;25.30;49.62;100519.72;2100752;28;20452;-74
2022/07/07 03:22:30;;;;;;;7.55;3.15;;;;;;;25.31;49.87;100520.63;2100983;28;20071;-74
2022/07/07 03:23:54;;;;;;;12.70;2.80;;;;;;;25.32;49.57;100525.94;2094652;28;20122;-73
2022/07/07 03:25:16;;;;;;;7.60;2.75;;;;;;;25.34;49.94;100526.72;2092992;28;20474;-74
2022/07/07 03:26:38;;;;;;;8.07;3.17;;;;;;;25.37;49.70;100529.28;2110935;28;20056;-74
2022/07/07 03:28:01;;;;;;;6.10;3.03;;;;;;;25.42;49.65;100515.53;2105571;28;20065;-75
2022/07/07 03:29:22;;;;;;;8.27;2.80;;;;;;;25.48;49.85;100530.56;2101202;28;20068;-74
2022/07/07 03:30:45;;;;;;;10.13;3.00;;;;;;;25.53;49.98;100528.53;2105331;28;20097;-74
2022/07/07 03:32:09;;;;;;;8.85;3.80;;;;;;;25.58;50.08;100535.50;2096268;28;20467;-75
2022/07/07 03:33:32;;;;;;;8.13;3.45;;;;;;;25.63;50.05;100529.84;2093823;28;20795;-74
2022/07/07 03:34:53;;;;;;;7.93;2.75;;;;;;;25.69;49.97;100529.53;2087176;28;20594;-74
2022/07/07 03:36:16;;;;;;;7.20;2.75;;;;;;;25.73;49.92;100529.31;2088563;28;20071;-74
2022/07/07 03:37:39;;;;;;;7.90;2.67;;;;;;;25.79;49.51;100542.56;2098365;28;20059;-74
2022/07/07 03:39:03;;;;;;;6.28;2.80;;;;;;;25.86;49.39;100536.81;2100907;28;20044;-74
2022/07/07 03:40:25;;;;;;;7.35;3.30;;;;;;;25.91;49.65;100541.03;2097252;28;20045;-74
2022/07/07 03:41:47;;;;;;;8.57;2.92;;;;;;;25.98;49.23;100538.91;2094482;28;20086;-75
2022/07/07 03:43:09;;;;;;;7.13;2.50;;;;;;;26.03;49.11;100545.81;2098543;28;20047;-74
2022/07/07 03:44:30;;;;;;;11.82;2.88;;;;;;;26.11;49.23;100543.59;2100017;28;20532;-74
2022/07/07 03:45:54;;;;;;;7.50;3.22;;;;;;;26.19;49.21;100549.44;2096649;28;20048;-74
2022/07/07 03:47:17;;;;;;;7.30;2.83;;;;;;;26.28;49.07;100541.84;2092838;28;20135;-74
2022/07/07 03:48:39;;;;;;;7.25;2.83;;;;;;;26.35;48.72;100554.97;2096786;28;20105;-74
2022/07/07 03:50:02;;;;;;;9.52;3.10;;;;;;;26.43;48.70;100557.28;2100459;28;20130;-74
2022/07/07 03:51:24;;;;;;;7.63;3.15;;;;;;;26.50;48.92;100551.47;2101376;28;20507;-74
2022/07/07 03:52:47;;;;;;;8.25;2.85;;;;;;;26.62;48.87;100565.31;2101346;28;20043;-73
2022/07/07 03:54:12;;;;;;;8.25;3.22;;;;;;;26.71;48.58;100559.41;2089420;28;20147;-75
2022/07/07 03:55:35;;;;;;;5.90;3.70;;;;;;;26.81;48.35;100560.63;2094096;28;20044;-74
2022/07/07 03:56:58;;;;;;;6.95;2.80;;;;;;;26.90;48.43;100569.19;2098089;28;20044;-74
2022/07/07 03:58:21;;;;;;;8.80;3.13;;;;;;;27.00;48.28;100566.81;2097579;28;20036;-75
2022/07/07 03:59:43;;;;;;;9.48;2.92;;;;;;;27.09;48.29;100570.88;2095668;28;20056;-75
2022/07/07 04:01:06;;;;;;;10.90;2.85;;;;;;;27.18;47.97;100570.31;2094032;28;20070;-74
2022/07/07 04:02:27;;;;;;;8.57;3.38;;;;;;;27.29;47.98;100578.75;2096066;28;20474;-74
2022/07/07 04:03:50;;;;;;;8.65;2.90;;;;;;;27.40;47.72;100572.72;2104293;28;20135;-74
2022/07/07 04:05:12;;;;;;;7.20;2.55;;;;;;;27.48;47.47;100575.88;2099772;28;20094;-74
2022/07/07 04:06:34;;;;;;;8.13;2.65;;;;;;;27.55;47.44;100574.59;2080005;28;20050;-74
2022/07/07 04:07:56;;;;;;;5.53;2.50;;;;;;;27.64;47.17;100576.75;2090568;28;20584;-74
2022/07/07 04:09:19;;;;;;;6.05;2.90;;;;;;;27.74;47.03;100576.16;2093005;28;20139;-74
2022/07/07 04:10:42;;;;;;;7.97;3.88;;;;;;;27.84;46.80;100575.59;2095929;28;20037;-74
2022/07/07 04:12:04;;;;;;;5.05;2.65;;;;;;;27.95;46.59;100587.59;2097474;28;20076;-74
2022/07/07 04:13:26;;;;;;;9.88;3.30;;;;;;;28.07;46.46;100581.41;2104670;28;20567;-74
2022/07/07 04:14:48;;;;;;;5.65;3.08;;;;;;;28.20;46.13;100581.59;2096208;28;20068;-74
2022/07/07 04:16:11;;;;;;;5.45;2.72;;;;;;;28.31;45.82;100587.25;2110994;28;20504;-74
2022/07/07 04:17:34;;;;;;;6.50;2.80;;;;;;;28.45;45.50;100575.53;2088289;28;20529;-73
2022/07/07 04:18:55;;;;;;;5.93;2.80;;;;;;;28.54;45.20;100578.56;2097397;28;20434;-74
2022/07/07 04:20:17;;;;;;;7.50;3.25;;;;;;;28.64;45.00;100575.25;2096213;28;20386;-75
2022/07/07 04:21:41;;;;;;;6.10;2.67;;;;;;;28.75;44.66;100575.53;2102537;28;20052;-75
2022/07/07 04:23:04;;;;;;;5.60;2.22;;;;;;;28.82;44.46;100568.69;2097787;28;20048;-74
2022/07/07 04:24:27;;;;;;;7.38;2.80;;;;;;;28.90;44.15;100582.69;2093683;28;21294;-74
2022/07/07 04:25:49;;;;;;;5.75;2.83;;;;;;;28.97;43.92;100578.63;2114671;27;20042;-75
2022/07/07 04:27:12;;;;;;;5.05;2.42;;;;;;;29.06;43.97;100588.03;2105127;28;20067;-75
2022/07/07 04:28:34;;;;;;;4.22;2.90;;;;;;;29.18;43.57;100574.53;2105648;28;20134;-74
2022/07/07 04:29:56;;;;;;;9.80;2.72;;;;;;;29.36;43.37;100571.59;2102558;28;20493;-75
2022/07/07 04:31:18;;;;;;;7.50;2.67;;;;;;;29.48;42.94;100578.97;2101547;28;20481;-74
2022/07/07 04:32:40;;;;;;;9.30;2.85;;;;;;;29.61;42.58;100580.78;2093530;28;20045;-74
2022/07/07 04:34:04;;;;;;;7.80;2.70;;;;;;;29.71;41.90;100571.03;2107775;28;20067;-74
2022/07/07 04:35:27;;;;;;;8.52;3.03;;;;;;;29.80;41.64;100582.28;2111268;28;20052;-75
2022/07/07 04:36:49;;;;;;;7.28;2.63;;;;;;;29.90;41.42;100576.09;2105140;28;20067;-75
2022/07/07 04:38:13;;;;;;;7.95;2.70;;;;;;;30.04;41.25;100581.53;2110588;28;20047;-75
2022/07/07 04:39:37;;;;;;;7.07;3.03;;;;;;;30.21;40.61;100576.75;2093793;28;20097;-74
2022/07/07 04:41:00;;;;;;;5.10;2.53;;;;;;;30.35;40.54;100579.41;2102480;28;20147;-75
2022/07/07 04:42:23;;;;;;;5.80;2.20;;;;;;;30.49;40.15;100582.97;2102262;28;20140;-74
2022/07/07 04:43:45;;;;;;;5.70;2.70;;;;;;;30.66;39.58;100592.66;2110942;28;20153;-74
2022/07/07 04:45:09;;;;;;;6.07;2.58;;;;;;;30.82;39.46;100571.50;2096547;28;20051;-74
2022/07/07 04:46:32;;;;;;;7.90;2.70;;;;;;;30.97;38.89;100596.81;2102357;28;20397;-74
2022/07/07 04:47:54;;;;;;;6.93;3.38;;;;;;;31.14;38.57;100599.22;2102403;28;20151;-74
2022/07/07 04:49:16;;;;;;;8.23;2.85;;;;;;;31.25;38.30;100598.44;2096843;28;20052;-74
2022/07/07 04:50:39;;;;;;;8.07;2.70;;;;;;;31.36;37.69;100600.41;2110555;28;20063;-75
2022/07/07 04:52:01;;;;;;;4.28;2.20;;;;;;;31.45;37.51;100597.84;2110743;28;20047;-74
2022/07/07 04:53:23;;;;;;;6.20;2.67;;;;;;;31.57;37.56;100604.28;2108507;28;20134;-75
2022/07/07 04:54:47;;;;;;;5.18;3.03;;;;;;;31.67;36.88;100597.16;2107806;28;20040;-75
2022/07/07 04:56:09;;;;;;;9.68;2.90;;;;;;;31.79;36.58;100609.88;2112149;28;20492;-75
2022/07/07 04:57:32;;;;;;;7.10;2.92;;;;;;;31.89;36.80;100601.88;2104638;28;20620;-74
2022/07/07 04:58:54;;;;;;;7.80;2.35;;;;;;;32.04;36.25;100606.16;2102045;28;20056;-75
2022/07/07 05:00:16;;;;;;;7.38;2.97;;;;;;;32.19;35.75;100605.03;2105769;28;20047;-74
2022/07/07 05:01:38;;;;;;;;;;;;;;;32.28;35.66;100618.00;2106084;28;20095;-74
2022/07/07 05:03:02;;;;;;;6.93;3.45;;;;;;;32.50;35.37;100617.19;2093844;28;19924;-74
2022/07/07 05:04:24;;;;;;;7.82;2.80;;;;;;;32.70;35.58;100612.91;2097217;28;20099;-75
2022/07/07 05:05:46;;;;;;;4.32;2.35;;;;;;;32.87;35.13;100617.06;2100903;28;20040;-74
2022/07/07 05:07:08;;;;;;;7.20;3.15;;;;;;;32.97;34.47;100621.66;2112900;28;20039;-74
2022/07/07 05:08:31;;;;;;;6.90;2.30;;;;;;;33.21;34.26;100621.59;2105076;28;20127;-75
2022/07/07 05:09:55;;;;;;;3.78;2.30;;;;;;;33.44;34.09;100625.19;2103295;28;20067;-75
2022/07/07 05:11:16;;;;;;;8.85;2.65;;;;;;;33.59;33.92;100621.19;2110633;28;20067;-75
2022/07/07 05:12:38;;;;;;;9.52;2.53;;;;;;;33.78;33.19;100623.31;2104333;28;20048;-75
2022/07/07 05:14:01;;;;;;;7.95;2.55;;;;;;;33.95;33.02;100629.09;2102219;28;20047;-75
2022/07/07 05:15:22;;;;;;;4.55;2.40;;;;;;;34.04;32.96;100630.22;2105656;28;20036;-75
2022/07/07 05:16:45;;;;;;;6.32;2.70;;;;;;;34.16;32.53;100631.91;2109335;28;20051;-75
2022/07/07 05:18:06;;;;;;;5.68;2.40;;;;;;;34.30;32.47;100622.53;2097588;28;20989;-74
2022/07/07 05:19:28;;;;;;;5.78;2.88;;;;;;;34.54;32.44;100634.13;2099534;28;20056;-74
2022/07/07 05:20:51;;;;;;;6.68;2.58;;;;;;;34.68;31.85;100628.31;2108719;28;20139;-75
2022/07/07 05:22:13;;;;;;;4.88;2.38;;;;;;;34.77;31.91;100634.91;2104724;28;20378;-75
2022/07/07 05:23:36;;;;;;;5.15;2.38;;;;;;;34.97;31.58;100630.41;2102243;28;20521;-75
2022/07/07 05:25:00;;;;;;;7.20;3.63;;;;;;;35.12;31.18;100624.41;2103319;28;20142;-74
2022/07/07 05:26:23;;;;;;;5.18;2.50;;;;;;;35.21;31.28;100633.75;2110499;28;20112;-75
2022/07/07 05:27:44;;;;;;;8.38;2.67;;;;;;;35.38;31.22;100630.31;2100369;28;20544;-74
2022/07/07 05:29:06;;;;;;;5.78;2.67;;;;;;;35.54;30.89;100638.06;2107373;28;20088;-74
2022/07/07 05:30:29;;;;;;;6.28;2.75;;;;;;;35.66;30.50;100623.19;2100878;28;20043;-76
2022/07/07 05:31:52;;;;;;;6.10;2.65;;;;;;;35.76;30.28;100629.66;2100082;28;20669;-75
2022/07/07 05:33:14;;;;;;;6.25;2.70;;;;;;;35.81;30.43;100624.59;2099918;28;20414;-76
2022/07/07 05:34:36;;;;;;;6.00;2.47;;;;;;;35.97;30.17;100624.88;2098966;28;20032;-75
2022/07/07 05:35:58;;;;;;;7.95;3.17;;;;;;;36.07;30.33;100626.78;2104667;28;20134;-75
2022/07/07 05:37:19;;;;;;;21.13;4.38;;;;;;;36.14;29.89;100637.06;2104200;28;20139;-75
2022/07/07 05:38:43;;;;;;;6.00;2.85;;;;;;;36.26;29.82;100635.06;2118644;27;20139;-76
2022/07/07 05:40:10;;;;;;;9.73;2.95;;;;;;;36.27;29.63;100640.44;2106435;28;20040;-75
2022/07/07 05:41:33;;;;;;;6.15;2.58;;;;;;;36.29;29.65;100641.19;2109898;28;20053;-76
2022/07/07 05:42:55;;;;;;;8.95;2.90;;;;;;;36.40;29.40;100642.91;2105882;28;20027;-75
2022/07/07 05:44:16;;;;;;;5.15;2.55;;;;;;;36.43;29.60;100642.59;2110454;28;20062;-75
2022/07/07 05:45:39;;;;;;;4.57;2.50;;;;;;;36.41;29.04;100650.16;2100862;28;20047;-75
2022/07/07 05:47:01;;;;;;;7.80;2.90;;;;;;;36.37;29.12;100650.56;2102053;28;20214;-75
2022/07/07 05:48:23;;;;;;;7.43;2.75;;;;;;;36.39;29.33;100654.91;2110263;28;20059;-75
2022/07/07 05:49:46;;;;;;;5.90;2.67;;;;;;;36.38;29.30;100646.78;2108085;28;20063;-75
2022/07/07 05:51:08;;;;;;;6.20;2.55;;;;;;;36.29;29.03;100657.69;2103785;28;20040;-75
2022/07/07 05:52:31;;;;;;;7.72;2.63;;;;;;;36.30;29.19;100653.06;2110864;28;20082;-75
2022/07/07 05:53:53;;;;;;;4.15;2.80;;;;;;;36.35;28.72;100650.72;2104054;28;20190;-75
2022/07/07 05:55:17;;;;;;;5.93;2.78;;;;;;;36.33;28.78;100656.38;2101926;28;20048;-75
2022/07/07 05:56:38;;;;;;;5.47;2.25;;;;;;;36.26;29.11;100663.44;2101789;28;20048;-75
2022/07/07 05:58:02;;;;;;;6.55;3.25;;;;;;;36.30;28.94;100648.38;2106372;28;20079;-75
2022/07/07 05:59:24;;;;;;;4.07;2.20;;;;;;;36.40;28.92;100653.03;2087822;28;20045;-75
2022/07/07 06:00:47;;;;;;;5.45;2.83;;;;;;;36.36;28.89;100659.84;2090027;28;20044;-75
2022/07/07 06:02:09;;;;;;;7.68;2.85;;;;;;;36.33;28.64;100655.50;2098799;28;20048;-75
2022/07/07 06:03:32;;;;;;;8.15;2.67;;;;;;;36.18;28.65;100665.16;2102053;28;20048;-75
2022/07/07 06:04:53;;;;;;;8.32;2.67;;;;;;;36.27;28.94;100662.44;2101765;28;20051;-75
2022/07/07 06:06:16;;;;;;;5.38;2.92;;;;;;;36.47;28.74;100668.81;2108886;28;20060;-75
2022/07/07 06:07:38;;;;;;;7.63;2.78;;;;;;;36.64;28.67;100669.97;2102417;28;20031;-75
2022/07/07 06:09:01;;;;;;;4.90;2.25;;;;;;;36.75;28.40;100656.09;2102015;28;20081;-75
2022/07/07 06:10:25;;;;;;;6.82;2.78;;;;;;;36.80;28.34;100669.41;2101769;28;20622;-74
2022/07/07 06:11:48;;;;;;;7.95;3.25;;;;;;;36.73;28.38;100669.13;2100853;28;20055;-75
2022/07/07 06:13:10;;;;;;;9.63;2.70;;;;;;;36.73;28.17;100672.75;2098921;28;20050;-75
2022/07/07 06:14:32;;;;;;;4.97;2.72;;;;;;;36.80;28.26;100667.53;2099827;28;20076;-75
2022/07/07 06:15:56;;;;;;;4.95;2.10;;;;;;;36.92;27.95;100680.09;2103983;28;20087;-76
2022/07/07 06:17:19;;;;;;;8.30;2.97;;;;;;;36.93;27.95;100672.72;2101432;28;20071;-75
2022/07/07 06:18:41;;;;;;;9.63;2.85;;;;;;;36.94;27.94;100675.34;2100255;28;20054;-75
2022/07/07 06:20:03;;;;;;;3.95;2.22;;;;;;;36.92;28.14;100673.72;2101329;28;20086;-74
2022/07/07 06:21:26;;;;;;;12.88;3.10;;;;;;;36.89;28.14;100685.91;2108943;28;20100;-75
2022/07/07 06:22:48;;;;;;;6.13;2.60;;;;;;;36.81;28.27;100674.78;2107625;28;20565;-76
2022/07/07 06:24:10;;;;;;;5.80;2.67;;;;;;;36.64;28.49;100675.47;2110062;28;20071;-75